CheckWX is a tool to help pilots better visualize weather data.  It is not intended as a substitute for an official pre-flight weather briefing.

22:25:11 UTC

KOLV METAR
Olive Branch Airport
Olive Branch, Mississippi, USA
Current

35 mins ago

KOLV 152150Z 18015G23KT 10SM BKN022 BKN060 26/22 A2995
Observed
Jul-15 @ 21:50 UTC
Wind
  • 180° at 15 KTS
  • Gusting to 23 KTS
Visibility
10 SM
Flight Rules
MVFR
Cloud Levels
  • Broken at 2,200' AGL
  • Broken at 6,000' AGL
Temperature
26°C / 79°F
Dewpoint
22°C / 72°F
Humidity
79%
Altimeter
29.95" Hg
Pressure
1014.22 hPa
Previous

2 hours ago

KOLV 152050Z 19014G20KT 10SM SCT022 BKN065 25/22 A2996
Observed
Jul-15 @ 20:50 UTC
Wind
  • 190° at 14 KTS
  • Gusting to 20 KTS
Visibility
10 SM
Flight Rules
VFR
Cloud Levels
  • Scattered at 2,200' AGL
  • Broken at 6,500' AGL
Temperature
25°C / 77°F
Dewpoint
22°C / 72°F
Humidity
83%
Altimeter
29.96" Hg
Pressure
1014.52 hPa
Previous

3 hours ago

KOLV 151950Z 17011G18KT 10SM SHRA BKN023 OVC065 25/22 A2996
Observed
Jul-15 @ 19:50 UTC
Wind
  • 170° at 11 KTS
  • Gusting to 18 KTS
Visibility
10 SM
Flight Rules
MVFR
Conditions
Rain
Cloud Levels
  • Broken at 2,300' AGL
  • Overcast at 6,500' AGL
Temperature
25°C / 77°F
Dewpoint
22°C / 72°F
Humidity
83%
Altimeter
29.96" Hg
Pressure
1014.52 hPa